createdAt,value
2018-09-12T00:00:17.938Z,101041.19
2018-09-12T00:02:45.787Z,101040.56
2018-09-12T00:05:13.711Z,101039.19
2018-09-12T00:07:42.676Z,101040.16
2018-09-12T00:10:10.627Z,101042.03
2018-09-12T00:12:38.486Z,101034.23
2018-09-12T00:15:06.389Z,101034.28
2018-09-12T00:17:34.315Z,101034.67
2018-09-12T00:20:07.433Z,101031.38
2018-09-12T00:22:36.003Z,101030.44
2018-09-12T00:25:03.929Z,101022.09
2018-09-12T00:27:32.532Z,101028.78
2018-09-12T00:30:00.405Z,101022.23
2018-09-12T00:32:28.207Z,101018.69
2018-09-12T00:34:56.304Z,101018.46
2018-09-12T00:37:24.162Z,101013.63
2018-09-12T00:39:52.023Z,101019.30
2018-09-12T00:42:19.827Z,101020.73
2018-09-12T00:44:47.713Z,101022.83
2018-09-12T00:47:15.547Z,101022.48
2018-09-12T00:49:43.385Z,101025.47
2018-09-12T00:52:11.201Z,101021.69
2018-09-12T00:54:39.103Z,101024.03
2018-09-12T00:57:06.956Z,101023.95
2018-09-12T00:59:34.877Z,101028.94
2018-09-12T01:02:02.756Z,101017.66
2018-09-12T01:04:30.561Z,101021.17
2018-09-12T01:06:58.428Z,101011.38
2018-09-12T01:09:26.268Z,101021.43
2018-09-12T01:11:54.059Z,101006.23
2018-09-12T01:14:21.959Z,101009.69
2018-09-12T01:16:54.772Z,101008.86
2018-09-12T01:19:22.591Z,101006.84
2018-09-12T01:21:50.532Z,101005.41
2018-09-12T01:24:18.333Z,101003.97
2018-09-12T01:26:46.269Z,101009.08
2018-09-12T01:29:14.082Z,100997.70
2018-09-12T01:31:41.906Z,100997.47
2018-09-12T01:34:13.656Z,101004.28
2018-09-12T01:36:41.611Z,101008.02
2018-09-12T01:39:10.084Z,101011.27
2018-09-12T01:41:38.048Z,101004.21
2018-09-12T01:44:06.105Z,101001.69
2018-09-12T01:46:33.986Z,100999.92
2018-09-12T01:49:01.775Z,100994.74
2018-09-12T01:51:29.555Z,100997.03
2018-09-12T01:53:57.375Z,100997.83
2018-09-12T01:56:25.216Z,100996.78
2018-09-12T01:58:53.129Z,100996.55
2018-09-12T02:01:21.043Z,100998.95
2018-09-12T02:03:48.883Z,100992.48
2018-09-12T02:06:16.732Z,100986.83
2018-09-12T02:08:44.563Z,100988.46
2018-09-12T02:11:12.451Z,100994.04
2018-09-12T02:13:40.257Z,100990.42
2018-09-12T02:16:08.247Z,100984.39
2018-09-12T02:18:36.244Z,100989.44
2018-09-12T02:21:04.095Z,100992.00
2018-09-12T02:23:31.977Z,100987.23
2018-09-12T02:25:59.815Z,100974.55
2018-09-12T02:28:27.588Z,100982.25
2018-09-12T02:30:55.460Z,100984.59
2018-09-12T02:33:23.376Z,100981.91
2018-09-12T02:35:57.131Z,100983.54
2018-09-12T02:38:25.038Z,100978.30
2018-09-12T02:40:52.936Z,100979.55
2018-09-12T02:43:20.947Z,100979.55
2018-09-12T02:45:48.802Z,100973.92
2018-09-12T02:48:16.687Z,100977.77
2018-09-12T02:50:44.586Z,100969.36
2018-09-12T02:53:12.451Z,100964.48
2018-09-12T02:55:40.327Z,100977.33
2018-09-12T02:58:08.119Z,100977.91
2018-09-12T03:00:39.952Z,100980.45
2018-09-12T03:03:07.940Z,100975.01
2018-09-12T03:05:35.818Z,100975.17
2018-09-12T03:08:03.823Z,100975.55
2018-09-12T03:10:31.576Z,100976.88
2018-09-12T03:12:59.364Z,100972.72
2018-09-12T03:15:27.235Z,100967.56
2018-09-12T03:17:55.072Z,100965.23
2018-09-12T03:20:22.931Z,100969.06
2018-09-12T03:22:50.733Z,100963.48
2018-09-12T03:25:18.503Z,100960.41
2018-09-12T03:27:46.296Z,100966.22
2018-09-12T03:30:14.182Z,100958.50
2018-09-12T03:32:42.002Z,100961.56
2018-09-12T03:35:09.881Z,100957.45
2018-09-12T03:37:37.743Z,100951.42
2018-09-12T03:40:06.117Z,100951.01
2018-09-12T03:42:33.946Z,100956.38
2018-09-12T03:45:01.728Z,100950.17
2018-09-12T03:47:29.564Z,100950.88
2018-09-12T03:49:57.389Z,100946.64
2018-09-12T03:52:25.232Z,100948.68
2018-09-12T03:54:53.104Z,100946.39
2018-09-12T03:57:20.881Z,100949.33
2018-09-12T03:59:48.729Z,100949.86
2018-09-12T04:02:16.524Z,100946.23
2018-09-12T04:04:44.346Z,100950.27
2018-09-12T04:07:12.176Z,100944.20
2018-09-12T04:09:39.975Z,100956.53
2018-09-12T04:12:07.901Z,100952.29
2018-09-12T04:14:35.652Z,100952.42
2018-09-12T04:17:03.740Z,100954.26
2018-09-12T04:19:31.567Z,100950.84
2018-09-12T04:21:59.447Z,100958.91
2018-09-12T04:24:27.393Z,100957.97
2018-09-12T04:26:55.153Z,100960.73
2018-09-12T04:29:23.020Z,100960.97
2018-09-12T04:31:50.786Z,100953.41
2018-09-12T04:34:18.584Z,100956.94
2018-09-12T04:36:46.382Z,100952.23
2018-09-12T04:39:14.155Z,100951.16
2018-09-12T04:41:42.071Z,100956.24
2018-09-12T04:44:09.928Z,100950.73
2018-09-12T04:46:37.791Z,100962.17
2018-09-12T04:49:05.809Z,100962.17
2018-09-12T04:51:33.636Z,100957.98
2018-09-12T04:54:01.472Z,100965.60
2018-09-12T04:56:29.326Z,100962.19
2018-09-12T04:58:57.203Z,100965.22
2018-09-12T05:01:25.036Z,100965.95
2018-09-12T05:03:53.100Z,100966.14
2018-09-12T05:06:21.049Z,100971.33
2018-09-12T05:08:49.391Z,100963.10
2018-09-12T05:11:17.359Z,100965.41
2018-09-12T05:13:45.169Z,100968.48
2018-09-12T05:16:13.179Z,100967.12
2018-09-12T05:18:41.075Z,100967.37
2018-09-12T05:21:08.919Z,100958.66
2018-09-12T05:23:36.695Z,100955.72
2018-09-12T05:26:04.828Z,100962.17
2018-09-12T05:28:32.894Z,100963.35
2018-09-12T05:31:00.691Z,100967.12
2018-09-12T05:33:28.653Z,100963.25
2018-09-12T05:35:56.443Z,100959.84
2018-09-12T05:38:24.516Z,100963.84
2018-09-12T05:40:52.370Z,100963.77
2018-09-12T05:43:20.164Z,100961.35
2018-09-12T05:45:48.008Z,100964.82
2018-09-12T05:48:15.865Z,100957.42
2018-09-12T05:50:43.709Z,100961.34
2018-09-12T05:53:11.594Z,100961.05
2018-09-12T05:55:39.494Z,100960.59
2018-09-12T05:58:07.339Z,100956.77
2018-09-12T06:00:35.156Z,100959.64
2018-09-12T06:03:02.992Z,100958.16
2018-09-12T06:05:30.884Z,100959.81
2018-09-12T06:07:58.752Z,100961.49
2018-09-12T06:10:26.625Z,100959.45
2018-09-12T06:12:54.412Z,100959.04
2018-09-12T06:15:22.300Z,100960.00
2018-09-12T06:17:50.233Z,100953.05
2018-09-12T06:20:18.119Z,100954.66
2018-09-12T06:22:45.974Z,100957.61
2018-09-12T06:25:14.595Z,100954.55
2018-09-12T06:27:42.487Z,100955.35
2018-09-12T06:30:10.343Z,100961.64
2018-09-12T06:32:38.144Z,100962.80
2018-09-12T06:35:06.175Z,100960.22
2018-09-12T06:37:33.976Z,100960.97
2018-09-12T06:40:01.829Z,100957.46
2018-09-12T06:42:29.637Z,100957.94
2018-09-12T06:44:57.455Z,100957.47
2018-09-12T06:47:25.217Z,100962.84
2018-09-12T06:49:53.133Z,100964.89
2018-09-12T06:52:21.267Z,100955.92
2018-09-12T06:54:49.937Z,100952.20
2018-09-12T06:57:17.702Z,100954.59
2018-09-12T06:59:45.490Z,100954.73
2018-09-12T07:02:13.336Z,100956.19
2018-09-12T07:04:41.195Z,100953.34
2018-09-12T07:07:08.997Z,100962.13
2018-09-12T07:09:36.906Z,100955.69
2018-09-12T07:12:04.835Z,100957.19
2018-09-12T07:14:32.759Z,100951.44
2018-09-12T07:17:00.607Z,100953.81
2018-09-12T07:19:28.542Z,100953.67
2018-09-12T07:21:56.376Z,100949.09
2018-09-12T07:24:24.169Z,100944.40
2018-09-12T07:26:51.993Z,100940.38
2018-09-12T07:29:19.866Z,100944.65
2018-09-12T07:31:47.712Z,100953.59
2018-09-12T07:34:15.521Z,100950.69
2018-09-12T07:36:43.344Z,100950.28
2018-09-12T07:39:15.131Z,100949.05
2018-09-12T07:41:43.153Z,100950.19
2018-09-12T07:44:10.896Z,100951.08
2018-09-12T07:46:38.771Z,100948.64
2018-09-12T07:49:07.301Z,100947.04
2018-09-12T07:51:35.319Z,100946.82
2018-09-12T07:54:03.176Z,100951.84
2018-09-12T07:56:30.956Z,100961.85
2018-09-12T07:59:01.889Z,100957.14
2018-09-12T08:01:29.811Z,100956.63
2018-09-12T08:03:57.679Z,100953.55
2018-09-12T08:06:25.500Z,100952.44
2018-09-12T08:08:53.460Z,100947.72
2018-09-12T08:11:21.409Z,100950.16
2018-09-12T08:13:49.624Z,100949.86
2018-09-12T08:16:17.813Z,100955.61
2018-09-12T08:18:45.691Z,100948.08
2018-09-12T08:21:13.563Z,100951.12
2018-09-12T08:23:41.483Z,100946.65
2018-09-12T08:26:09.466Z,100939.09
2018-09-12T08:28:37.357Z,100941.81
2018-09-12T08:31:05.138Z,100944.81
2018-09-12T08:33:33.005Z,100940.63
2018-09-12T08:36:00.872Z,100940.66
2018-09-12T08:38:28.684Z,100933.97
2018-09-12T08:40:56.604Z,100927.75
2018-09-12T08:43:24.455Z,100921.81
2018-09-12T08:45:52.252Z,100919.09
2018-09-12T08:48:20.119Z,100917.80
2018-09-12T08:50:49.602Z,100913.12
2018-09-12T08:53:17.990Z,100912.11
2018-09-12T08:55:46.496Z,100904.84
2018-09-12T08:58:14.389Z,100906.77
2018-09-12T09:00:42.172Z,100908.73
2018-09-12T09:03:09.987Z,100909.39
2018-09-12T09:05:37.884Z,100903.30
2018-09-12T09:08:05.737Z,100902.12
2018-09-12T09:10:33.560Z,100892.75
2018-09-12T09:13:01.320Z,100892.63
2018-09-12T09:15:29.214Z,100892.66
2018-09-12T09:17:56.995Z,100889.89
2018-09-12T09:20:25.096Z,100896.67
2018-09-12T09:22:53.073Z,100893.39
2018-09-12T09:25:20.867Z,100890.69
2018-09-12T09:27:48.708Z,100893.69
2018-09-12T09:30:16.524Z,100893.63
2018-09-12T09:32:44.478Z,100887.82
2018-09-12T09:35:12.231Z,100887.19
2018-09-12T09:37:40.048Z,100889.69
2018-09-12T09:40:08.963Z,100885.59
2018-09-12T09:42:37.024Z,100875.39
2018-09-12T09:45:05.367Z,100875.86
2018-09-12T09:47:33.120Z,100874.03
2018-09-12T09:50:00.935Z,100870.06
2018-09-12T09:52:28.732Z,100873.31
2018-09-12T09:54:56.616Z,100871.56
2018-09-12T09:57:24.407Z,100866.38
2018-09-12T09:59:52.848Z,100867.02
2018-09-12T10:02:26.272Z,100856.66
2018-09-12T10:04:59.796Z,100861.95
2018-09-12T10:07:33.287Z,100855.18
2018-09-12T10:10:03.671Z,100853.23
2018-09-12T10:12:32.276Z,100857.30
2018-09-12T10:15:00.870Z,100852.79
2018-09-12T10:17:28.677Z,100857.25
2018-09-12T10:19:56.483Z,100851.30
2018-09-12T10:22:24.303Z,100851.13
2018-09-12T10:24:52.091Z,100849.95
2018-09-12T10:27:19.889Z,100844.12
2018-09-12T10:29:47.708Z,100848.19
2018-09-12T10:32:15.536Z,100838.19
2018-09-12T10:34:43.933Z,100832.55
2018-09-12T10:37:13.587Z,100832.47
2018-09-12T10:39:41.355Z,100830.70
2018-09-12T10:42:09.298Z,100823.39
2018-09-12T10:44:37.040Z,100819.33
2018-09-12T10:47:05.765Z,100813.79
2018-09-12T10:49:33.611Z,100816.02
2018-09-12T10:52:05.293Z,100809.35
2018-09-12T10:54:34.884Z,100803.54
2018-09-12T10:57:02.679Z,100802.25
2018-09-12T10:59:30.488Z,100802.09
2018-09-12T11:01:58.312Z,100796.06
2018-09-12T11:04:26.214Z,100791.62
2018-09-12T11:06:54.050Z,100792.41
2018-09-12T11:09:21.920Z,100793.05
2018-09-12T11:11:49.740Z,100787.95
2018-09-12T11:14:17.517Z,100791.21
2018-09-12T11:16:45.343Z,100782.26
2018-09-12T11:19:13.115Z,100777.81
2018-09-12T11:21:40.991Z,100773.29
2018-09-12T11:24:08.861Z,100774.77
2018-09-12T11:26:36.679Z,100772.86
2018-09-12T11:29:04.489Z,100773.80
2018-09-12T11:31:32.300Z,100770.38
2018-09-12T11:34:00.091Z,100762.42
2018-09-12T11:36:27.945Z,100754.03
2018-09-12T11:38:55.811Z,100754.14
2018-09-12T11:41:23.640Z,100752.97
2018-09-12T11:43:51.403Z,100750.14
2018-09-12T11:46:19.230Z,100749.42
2018-09-12T11:48:47.023Z,100752.78
2018-09-12T11:51:14.820Z,100754.14
2018-09-12T11:53:42.668Z,100750.55
2018-09-12T11:56:10.431Z,100744.22
2018-09-12T11:58:38.219Z,100745.37
2018-09-12T12:01:06.552Z,100738.73
2018-09-12T12:03:34.370Z,100747.14
2018-09-12T12:06:02.146Z,100739.05
2018-09-12T12:08:29.903Z,100736.92
2018-09-12T12:10:57.750Z,100734.96
2018-09-12T12:13:25.515Z,100730.77
2018-09-12T12:15:53.387Z,100731.45
2018-09-12T12:18:25.687Z,100733.15
2018-09-12T12:20:53.551Z,100728.58
2018-09-12T12:23:21.394Z,100720.31
2018-09-12T12:25:49.155Z,100716.36
2018-09-12T12:28:17.076Z,100717.08
2018-09-12T12:30:44.976Z,100714.33
2018-09-12T12:33:12.819Z,100708.28
2018-09-12T12:35:40.683Z,100708.05
2018-09-12T12:38:08.586Z,100710.11
2018-09-12T12:40:36.457Z,100701.60
2018-09-12T12:43:04.208Z,100689.39
2018-09-12T12:45:32.036Z,100687.25
2018-09-12T12:47:59.826Z,100692.44
2018-09-12T12:50:27.647Z,100693.88
2018-09-12T12:52:55.412Z,100686.86
2018-09-12T12:55:23.280Z,100685.63
2018-09-12T12:57:51.080Z,100683.54
2018-09-12T13:00:23.042Z,100679.27
2018-09-12T13:02:50.912Z,100674.66
2018-09-12T13:05:18.736Z,100671.22
2018-09-12T13:07:46.543Z,100668.66
2018-09-12T13:10:14.386Z,100658.37
2018-09-12T13:12:42.185Z,100653.83
2018-09-12T13:15:12.504Z,100663.48
2018-09-12T13:17:40.380Z,100656.49
2018-09-12T13:20:08.175Z,100653.20
2018-09-12T13:22:36.071Z,100649.02
2018-09-12T13:25:04.047Z,100641.46
2018-09-12T13:27:37.008Z,100643.36
2018-09-12T13:30:05.243Z,100639.88
2018-09-12T13:32:33.137Z,100645.78
2018-09-12T13:35:00.908Z,100627.79
2018-09-12T13:37:28.709Z,100627.78
2018-09-12T13:39:56.543Z,100628.78
2018-09-12T13:42:24.316Z,100624.74
2018-09-12T13:44:52.115Z,100612.05
2018-09-12T13:47:19.924Z,100614.27
2018-09-12T13:49:47.756Z,100620.44
2018-09-12T13:52:15.496Z,100619.61
2018-09-12T13:54:43.283Z,100614.61
2018-09-12T13:57:15.241Z,100622.39
2018-09-12T13:59:43.048Z,100616.19
2018-09-12T14:02:21.223Z,100615.88
2018-09-12T14:04:50.134Z,100614.18
2018-09-12T14:07:18.028Z,100614.99
2018-09-12T14:09:45.962Z,100603.77
2018-09-12T14:12:13.799Z,100606.30
2018-09-12T14:14:41.628Z,100603.31
2018-09-12T14:17:09.480Z,100606.08
2018-09-12T14:19:37.287Z,100599.62
2018-09-12T14:22:05.156Z,100598.20
2018-09-12T14:24:32.968Z,100592.03
2018-09-12T14:27:00.807Z,100591.44
2018-09-12T14:29:28.631Z,100589.13
2018-09-12T14:31:56.499Z,100581.26
2018-09-12T14:34:24.300Z,100580.58
2018-09-12T14:36:52.210Z,100581.83
2018-09-12T14:39:20.079Z,100576.42
2018-09-12T14:41:47.823Z,100575.02
2018-09-12T14:44:15.647Z,100567.64
2018-09-12T14:46:43.443Z,100574.77
2018-09-12T14:49:11.253Z,100559.01
2018-09-12T14:51:39.707Z,100563.11
2018-09-12T14:54:07.647Z,100560.97
2018-09-12T14:56:35.442Z,100558.58
2018-09-12T14:59:03.296Z,100557.16
2018-09-12T15:01:31.087Z,100554.72
2018-09-12T15:03:58.846Z,100557.38
2018-09-12T15:06:26.696Z,100559.17
2018-09-12T15:08:54.515Z,100553.59
2018-09-12T15:11:22.323Z,100552.63
2018-09-12T15:13:50.185Z,100545.81
2018-09-12T15:16:17.935Z,100562.59
2018-09-12T15:18:45.992Z,100551.20
2018-09-12T15:21:13.859Z,100547.95
2018-09-12T15:23:41.693Z,100549.95
2018-09-12T15:26:09.504Z,100550.13
2018-09-12T15:28:37.324Z,100552.70
2018-09-12T15:31:05.311Z,100552.64
2018-09-12T15:33:36.497Z,100542.67
2018-09-12T15:36:04.321Z,100549.38
2018-09-12T15:38:32.454Z,100551.30
2018-09-12T15:41:00.267Z,100548.77
2018-09-12T15:43:28.536Z,100549.75
2018-09-12T15:45:56.975Z,100546.48
2018-09-12T15:48:24.737Z,100547.42
2018-09-12T15:50:52.516Z,100546.17
2018-09-12T15:53:20.683Z,100549.37
2018-09-12T15:55:48.448Z,100546.47
2018-09-12T15:58:16.286Z,100545.21
2018-09-12T16:00:44.120Z,100540.67
2018-09-12T16:03:12.939Z,100545.28
2018-09-12T16:05:40.899Z,100543.30
2018-09-12T16:08:08.700Z,100543.15
2018-09-12T16:10:36.904Z,100543.97
2018-09-12T16:13:04.907Z,100539.04
2018-09-12T16:15:32.764Z,100544.78
2018-09-12T16:18:00.558Z,100544.84
2018-09-12T16:20:29.092Z,100537.69
2018-09-12T16:22:57.645Z,100540.07
2018-09-12T16:25:25.511Z,100539.31
2018-09-12T16:27:53.777Z,100534.38
2018-09-12T16:30:21.596Z,100538.38
2018-09-12T16:32:49.362Z,100531.73
2018-09-12T16:35:17.215Z,100525.27
2018-09-12T16:37:45.064Z,100520.50
2018-09-12T16:40:12.987Z,100518.55
2018-09-12T16:42:40.735Z,100515.11
2018-09-12T16:45:08.767Z,100512.78
2018-09-12T16:47:36.571Z,100514.56
2018-09-12T16:50:04.961Z,100505.14
2018-09-12T16:52:33.067Z,100503.09
2018-09-12T16:55:00.897Z,100504.72
2018-09-12T16:57:30.126Z,100510.84
2018-09-12T16:59:57.987Z,100509.73
2018-09-12T17:02:25.771Z,100517.48
2018-09-12T17:04:53.540Z,100516.70
2018-09-12T17:07:21.327Z,100512.66
2018-09-12T17:09:49.343Z,100523.96
2018-09-12T17:12:17.572Z,100518.86
2018-09-12T17:14:45.339Z,100518.53
2018-09-12T17:17:13.131Z,100520.36
2018-09-12T17:19:45.428Z,100523.19
2018-09-12T17:22:13.459Z,100521.05
2018-09-12T17:24:41.289Z,100525.45
2018-09-12T17:27:09.203Z,100527.01
2018-09-12T17:29:36.999Z,100531.33
2018-09-12T17:32:04.869Z,100524.57
2018-09-12T17:34:35.310Z,100530.00
2018-09-12T17:37:03.305Z,100530.69
2018-09-12T17:39:31.225Z,100529.55
2018-09-12T17:41:59.075Z,100538.33
2018-09-12T17:44:26.915Z,100532.93
2018-09-12T17:46:54.711Z,100532.11
2018-09-12T17:49:22.491Z,100533.15
2018-09-12T17:51:50.304Z,100534.45
2018-09-12T17:54:18.100Z,100532.16
2018-09-12T17:56:45.919Z,100535.66
2018-09-12T17:59:13.729Z,100541.02
2018-09-12T18:01:41.475Z,100541.34
2018-09-12T18:04:09.252Z,100538.69
2018-09-12T18:06:37.141Z,100541.91
2018-09-12T18:09:07.584Z,100541.61
2018-09-12T18:11:35.473Z,100546.40
2018-09-12T18:14:03.318Z,100545.59
2018-09-12T18:16:31.152Z,100555.44
2018-09-12T18:18:59.009Z,100556.20
2018-09-12T18:21:26.807Z,100559.48
2018-09-12T18:23:54.627Z,100555.27
2018-09-12T18:26:22.396Z,100562.59
2018-09-12T18:28:50.243Z,100570.70
2018-09-12T18:31:18.071Z,100567.83
2018-09-12T18:33:45.943Z,100573.51
2018-09-12T18:36:14.373Z,100574.03
2018-09-12T18:38:42.224Z,100574.95
2018-09-12T18:41:10.112Z,100579.42
2018-09-12T18:43:37.893Z,100583.55
2018-09-12T18:46:05.843Z,100577.78
2018-09-12T18:48:33.767Z,100580.83
2018-09-12T18:51:13.189Z,100582.63
2018-09-12T18:53:41.053Z,100579.46
2018-09-12T18:56:09.067Z,100590.83
2018-09-12T18:58:39.431Z,100599.17
2018-09-12T19:01:08.113Z,100597.59
2018-09-12T19:03:35.925Z,100607.41
2018-09-12T19:06:05.484Z,100608.80
2018-09-12T19:08:33.704Z,100611.62
2018-09-12T19:11:02.415Z,100613.02
2018-09-12T19:13:30.688Z,100615.47
2018-09-12T19:16:00.016Z,100615.09
2018-09-12T19:18:28.000Z,100620.69
2018-09-12T19:20:56.746Z,100629.16
2018-09-12T19:23:24.639Z,100629.25
2018-09-12T19:25:52.463Z,100630.46
2018-09-12T19:28:20.314Z,100633.35
2018-09-12T19:30:48.313Z,100632.67
2018-09-12T19:33:16.165Z,100630.11
2018-09-12T19:35:44.101Z,100633.64
2018-09-12T19:38:11.951Z,100632.23
2018-09-12T19:40:39.705Z,100642.06
2018-09-12T19:43:07.876Z,100642.53
2018-09-12T19:45:35.789Z,100638.76
2018-09-12T19:48:03.819Z,100654.72
2018-09-12T19:50:31.636Z,100654.95
2018-09-12T19:52:59.390Z,100668.23
2018-09-12T19:55:27.265Z,100668.23
2018-09-12T19:57:55.234Z,100676.24
2018-09-12T20:00:23.466Z,100687.25
2018-09-12T20:02:51.307Z,100680.53
2018-09-12T20:05:19.220Z,100692.23
2018-09-12T20:07:47.091Z,100696.86
2018-09-12T20:10:14.959Z,100698.21
2018-09-12T20:12:42.796Z,100711.80
2018-09-12T20:15:10.674Z,100708.88
2018-09-12T20:17:38.511Z,100715.91
2018-09-12T20:20:06.460Z,100718.13
2018-09-12T20:22:34.706Z,100722.17
2018-09-12T20:25:02.500Z,100726.47
2018-09-12T20:27:30.291Z,100728.83
2018-09-12T20:29:58.193Z,100724.14
2018-09-12T20:32:25.977Z,100728.91
2018-09-12T20:34:53.824Z,100726.45
2018-09-12T20:37:21.655Z,100732.21
2018-09-12T20:39:49.470Z,100735.70
2018-09-12T20:42:17.364Z,100742.66
2018-09-12T20:44:45.131Z,100742.50
2018-09-12T20:47:13.006Z,100747.81
2018-09-12T20:49:40.819Z,100746.92
2018-09-12T20:52:08.631Z,100747.06
2018-09-12T20:54:36.451Z,100744.25
2018-09-12T20:57:04.763Z,100753.57
2018-09-12T20:59:32.492Z,100752.57
2018-09-12T21:02:00.272Z,100755.48
2018-09-12T21:04:28.130Z,100758.38
2018-09-12T21:06:55.940Z,100764.96
2018-09-12T21:09:23.671Z,100763.13
2018-09-12T21:11:51.620Z,100762.80
2018-09-12T21:14:19.423Z,100766.12
2018-09-12T21:16:47.239Z,100760.33
2018-09-12T21:19:15.011Z,100767.02
2018-09-12T21:21:42.844Z,100778.23
2018-09-12T21:24:10.700Z,100776.39
2018-09-12T21:26:38.498Z,100776.45
2018-09-12T21:29:06.283Z,100773.38
2018-09-12T21:31:34.120Z,100770.33
2018-09-12T21:34:01.970Z,100778.23
2018-09-12T21:36:29.755Z,100781.16
2018-09-12T21:38:57.570Z,100782.03
2018-09-12T21:41:25.403Z,100782.70
2018-09-12T21:43:53.176Z,100776.41
2018-09-12T21:46:21.035Z,100778.93
2018-09-12T21:48:48.879Z,100772.86
2018-09-12T21:51:16.950Z,100779.92
2018-09-12T21:53:46.361Z,100785.00
2018-09-12T21:56:14.176Z,100773.98
2018-09-12T21:58:42.044Z,100769.86
2018-09-12T22:01:09.803Z,100776.53
2018-09-12T22:03:37.551Z,100784.45
2018-09-12T22:06:05.419Z,100792.93
2018-09-12T22:08:33.161Z,100790.56
2018-09-12T22:11:00.995Z,100785.67
2018-09-12T22:13:28.764Z,100794.59
2018-09-12T22:15:56.488Z,100796.24
2018-09-12T22:18:24.347Z,100806.52
2018-09-12T22:20:52.128Z,100805.72
2018-09-12T22:23:20.063Z,100808.88
2018-09-12T22:25:48.021Z,100807.96
2018-09-12T22:28:15.787Z,100810.31
2018-09-12T22:30:43.838Z,100813.70
2018-09-12T22:33:11.655Z,100804.58
2018-09-12T22:35:39.420Z,100804.30
2018-09-12T22:38:07.256Z,100801.61
2018-09-12T22:40:34.975Z,100799.66
2018-09-12T22:43:02.815Z,100794.70
2018-09-12T22:45:30.614Z,100791.95
2018-09-12T22:47:58.476Z,100802.47
2018-09-12T22:50:26.240Z,100800.84
2018-09-12T22:52:54.037Z,100802.23
2018-09-12T22:55:21.846Z,100801.14
2018-09-12T22:57:49.730Z,100784.85
2018-09-12T23:00:17.580Z,100785.69
2018-09-12T23:02:45.388Z,100786.80
2018-09-12T23:05:13.247Z,100792.33
2018-09-12T23:07:41.033Z,100800.41
2018-09-12T23:10:08.786Z,100800.98
2018-09-12T23:12:36.594Z,100802.95
2018-09-12T23:15:04.488Z,100798.23
2018-09-12T23:17:32.283Z,100796.31
2018-09-12T23:20:00.233Z,100794.66
2018-09-12T23:22:28.048Z,100788.84
2018-09-12T23:24:55.893Z,100792.73
2018-09-12T23:27:23.716Z,100781.95
2018-09-12T23:29:51.568Z,100788.58
2018-09-12T23:32:19.319Z,100780.31
2018-09-12T23:34:47.216Z,100773.36
2018-09-12T23:37:17.940Z,100787.22
2018-09-12T23:39:45.792Z,100789.98
2018-09-12T23:42:13.680Z,100787.22
2018-09-12T23:44:41.497Z,100782.80
2018-09-12T23:47:09.331Z,100790.25
2018-09-12T23:49:37.161Z,100795.52
2018-09-12T23:52:04.983Z,100795.25
2018-09-12T23:54:32.837Z,100790.55
2018-09-12T23:57:00.615Z,100780.02
2018-09-12T23:59:28.436Z,100781.69
